sensor_id;sensor_type;location;lat;lon;timestamp;temperature;humidity
51825;DHT22;37879;52.986;6.282;2022-11-15T00:00:18;6.60;99.90
51825;DHT22;37879;52.986;6.282;2022-11-15T00:02:43;6.60;99.90
51825;DHT22;37879;52.986;6.282;2022-11-15T00:05:09;6.60;99.90
51825;DHT22;37879;52.986;6.282;2022-11-15T00:07:35;6.70;99.90
51825;DHT22;37879;52.986;6.282;2022-11-15T00:10:00;6.70;99.90
51825;DHT22;37879;52.986;6.282;2022-11-15T00:12:27;6.80;99.90
51825;DHT22;37879;52.986;6.282;2022-11-15T00:14:53;6.80;99.90
51825;DHT22;37879;52.986;6.282;2022-11-15T00:17:19;6.90;99.90
51825;DHT22;37879;52.986;6.282;2022-11-15T00:19:45;7.00;99.90
51825;DHT22;37879;52.986;6.282;2022-11-15T00:22:10;7.00;99.90
51825;DHT22;37879;52.986;6.282;2022-11-15T00:24:36;7.00;99.90
51825;DHT22;37879;52.986;6.282;2022-11-15T00:27:02;7.10;99.90
51825;DHT22;37879;52.986;6.282;2022-11-15T00:29:27;7.10;99.90
51825;DHT22;37879;52.986;6.282;2022-11-15T00:31:53;7.10;99.90
51825;DHT22;37879;52.986;6.282;2022-11-15T00:34:19;7.20;99.90
51825;DHT22;37879;52.986;6.282;2022-11-15T00:36:44;7.20;99.90
51825;DHT22;37879;52.986;6.282;2022-11-15T00:39:10;7.30;99.90
51825;DHT22;37879;52.986;6.282;2022-11-15T00:41:36;7.30;99.90
51825;DHT22;37879;52.986;6.282;2022-11-15T00:44:01;7.30;99.90
51825;DHT22;37879;52.986;6.282;2022-11-15T00:46:27;7.30;99.90
51825;DHT22;37879;52.986;6.282;2022-11-15T00:48:53;7.30;99.90
51825;DHT22;37879;52.986;6.282;2022-11-15T00:51:18;7.40;99.90
51825;DHT22;37879;52.986;6.282;2022-11-15T00:53:44;7.30;99.90
51825;DHT22;37879;52.986;6.282;2022-11-15T00:56:10;7.30;99.90
51825;DHT22;37879;52.986;6.282;2022-11-15T00:58:35;7.30;99.90
51825;DHT22;37879;52.986;6.282;2022-11-15T01:01:13;7.30;99.90
51825;DHT22;37879;52.986;6.282;2022-11-15T01:03:40;7.30;99.90
51825;DHT22;37879;52.986;6.282;2022-11-15T01:06:07;7.30;99.90
51825;DHT22;37879;52.986;6.282;2022-11-15T01:08:32;7.30;99.90
51825;DHT22;37879;52.986;6.282;2022-11-15T01:11:07;7.30;99.90
51825;DHT22;37879;52.986;6.282;2022-11-15T01:13:34;7.30;99.90
51825;DHT22;37879;52.986;6.282;2022-11-15T01:16:13;7.30;99.90
51825;DHT22;37879;52.986;6.282;2022-11-15T01:18:39;7.30;99.90
51825;DHT22;37879;52.986;6.282;2022-11-15T01:21:07;7.30;99.90
51825;DHT22;37879;52.986;6.282;2022-11-15T01:23:33;7.30;99.90
51825;DHT22;37879;52.986;6.282;2022-11-15T01:26:04;7.30;99.90
51825;DHT22;37879;52.986;6.282;2022-11-15T01:28:35;7.20;99.90
51825;DHT22;37879;52.986;6.282;2022-11-15T01:31:04;7.20;99.90
51825;DHT22;37879;52.986;6.282;2022-11-15T01:33:30;7.20;99.90
51825;DHT22;37879;52.986;6.282;2022-11-15T01:35:56;7.20;99.90
51825;DHT22;37879;52.986;6.282;2022-11-15T01:38:22;7.20;99.90
51825;DHT22;37879;52.986;6.282;2022-11-15T01:40:49;7.20;99.90
51825;DHT22;37879;52.986;6.282;2022-11-15T01:43:22;7.30;99.90
51825;DHT22;37879;52.986;6.282;2022-11-15T01:45:52;7.20;99.90
51825;DHT22;37879;52.986;6.282;2022-11-15T01:48:21;7.20;99.90
51825;DHT22;37879;52.986;6.282;2022-11-15T01:50:48;7.20;99.90
51825;DHT22;37879;52.986;6.282;2022-11-15T01:53:14;7.20;99.90
51825;DHT22;37879;52.986;6.282;2022-11-15T01:55:41;7.10;99.90
51825;DHT22;37879;52.986;6.282;2022-11-15T01:58:07;7.10;99.90
51825;DHT22;37879;52.986;6.282;2022-11-15T02:00:33;7.10;99.90
51825;DHT22;37879;52.986;6.282;2022-11-15T02:02:59;7.20;99.90
51825;DHT22;37879;52.986;6.282;2022-11-15T02:05:25;7.20;99.90
51825;DHT22;37879;52.986;6.282;2022-11-15T02:07:51;7.10;99.90
51825;DHT22;37879;52.986;6.282;2022-11-15T02:10:21;7.40;99.90
51825;DHT22;37879;52.986;6.282;2022-11-15T02:12:48;7.10;99.90
51825;DHT22;37879;52.986;6.282;2022-11-15T02:15:14;7.10;99.90
51825;DHT22;37879;52.986;6.282;2022-11-15T02:29:10;7.10;99.90
51825;DHT22;37879;52.986;6.282;2022-11-15T02:34:27;7.20;99.90
51825;DHT22;37879;52.986;6.282;2022-11-15T02:40:01;7.20;99.90
51825;DHT22;37879;52.986;6.282;2022-11-15T02:42:55;7.20;99.90
51825;DHT22;37879;52.986;6.282;2022-11-15T02:45:45;7.20;99.90
51825;DHT22;37879;52.986;6.282;2022-11-15T02:48:14;7.20;99.90
51825;DHT22;37879;52.986;6.282;2022-11-15T02:50:41;7.20;99.90
51825;DHT22;37879;52.986;6.282;2022-11-15T02:53:08;7.20;99.90
51825;DHT22;37879;52.986;6.282;2022-11-15T02:55:43;7.20;99.90
51825;DHT22;37879;52.986;6.282;2022-11-15T03:01:19;7.30;99.90
51825;DHT22;37879;52.986;6.282;2022-11-15T03:06:55;7.30;99.90
51825;DHT22;37879;52.986;6.282;2022-11-15T03:09:34;7.30;99.90
51825;DHT22;37879;52.986;6.282;2022-11-15T03:12:16;7.30;99.90
51825;DHT22;37879;52.986;6.282;2022-11-15T03:14:55;7.30;99.90
51825;DHT22;37879;52.986;6.282;2022-11-15T03:17:52;7.40;99.90
51825;DHT22;37879;52.986;6.282;2022-11-15T03:20:20;7.40;99.90
51825;DHT22;37879;52.986;6.282;2022-11-15T03:22:47;7.40;99.90
51825;DHT22;37879;52.986;6.282;2022-11-15T03:25:21;7.70;99.90
51825;DHT22;37879;52.986;6.282;2022-11-15T03:27:51;7.50;99.90
51825;DHT22;37879;52.986;6.282;2022-11-15T03:30:18;7.50;99.90
51825;DHT22;37879;52.986;6.282;2022-11-15T03:32:52;7.40;99.90
51825;DHT22;37879;52.986;6.282;2022-11-15T03:35:25;7.50;99.90
51825;DHT22;37879;52.986;6.282;2022-11-15T03:40:49;7.60;99.90
51825;DHT22;37879;52.986;6.282;2022-11-15T03:43:35;7.60;99.90
51825;DHT22;37879;52.986;6.282;2022-11-15T03:46:11;7.60;99.90
51825;DHT22;37879;52.986;6.282;2022-11-15T03:48:52;7.60;99.90
51825;DHT22;37879;52.986;6.282;2022-11-15T03:51:19;7.80;99.90
51825;DHT22;37879;52.986;6.282;2022-11-15T03:53:45;7.60;99.90
51825;DHT22;37879;52.986;6.282;2022-11-15T03:56:11;7.70;99.90
51825;DHT22;37879;52.986;6.282;2022-11-15T03:58:37;7.60;99.90
51825;DHT22;37879;52.986;6.282;2022-11-15T04:01:03;7.80;99.90
51825;DHT22;37879;52.986;6.282;2022-11-15T04:03:28;7.60;99.90
51825;DHT22;37879;52.986;6.282;2022-11-15T04:05:54;7.70;99.90
51825;DHT22;37879;52.986;6.282;2022-11-15T04:08:19;8.10;99.90
51825;DHT22;37879;52.986;6.282;2022-11-15T04:10:48;7.70;99.90
51825;DHT22;37879;52.986;6.282;2022-11-15T04:13:13;7.70;99.90
51825;DHT22;37879;52.986;6.282;2022-11-15T04:15:39;7.70;99.90
51825;DHT22;37879;52.986;6.282;2022-11-15T04:18:05;7.80;99.90
51825;DHT22;37879;52.986;6.282;2022-11-15T04:20:31;7.80;99.90
51825;DHT22;37879;52.986;6.282;2022-11-15T04:23:23;7.80;99.90
51825;DHT22;37879;52.986;6.282;2022-11-15T04:26:18;7.80;99.90
51825;DHT22;37879;52.986;6.282;2022-11-15T04:28:44;7.80;99.90
51825;DHT22;37879;52.986;6.282;2022-11-15T04:31:29;7.90;99.90
51825;DHT22;37879;52.986;6.282;2022-11-15T04:33:55;8.10;99.90
51825;DHT22;37879;52.986;6.282;2022-11-15T04:36:21;7.90;99.90
51825;DHT22;37879;52.986;6.282;2022-11-15T04:39:05;8.00;99.90
51825;DHT22;37879;52.986;6.282;2022-11-15T04:41:31;8.00;99.90
51825;DHT22;37879;52.986;6.282;2022-11-15T04:43:57;8.00;99.90
51825;DHT22;37879;52.986;6.282;2022-11-15T04:46:23;8.10;99.90
51825;DHT22;37879;52.986;6.282;2022-11-15T04:48:49;8.10;99.90
51825;DHT22;37879;52.986;6.282;2022-11-15T04:51:15;8.20;99.90
51825;DHT22;37879;52.986;6.282;2022-11-15T04:53:41;8.20;99.90
51825;DHT22;37879;52.986;6.282;2022-11-15T04:56:07;8.20;99.90
51825;DHT22;37879;52.986;6.282;2022-11-15T04:58:32;8.30;99.90
51825;DHT22;37879;52.986;6.282;2022-11-15T05:01:10;8.30;99.90
51825;DHT22;37879;52.986;6.282;2022-11-15T05:03:36;8.30;99.90
51825;DHT22;37879;52.986;6.282;2022-11-15T05:06:20;8.30;99.90
51825;DHT22;37879;52.986;6.282;2022-11-15T05:08:46;8.40;99.90
51825;DHT22;37879;52.986;6.282;2022-11-15T05:11:12;8.40;99.90
51825;DHT22;37879;52.986;6.282;2022-11-15T05:13:37;8.30;99.90
51825;DHT22;37879;52.986;6.282;2022-11-15T05:16:03;8.30;99.90
51825;DHT22;37879;52.986;6.282;2022-11-15T05:18:29;8.40;99.90
51825;DHT22;37879;52.986;6.282;2022-11-15T05:20:55;8.50;99.90
51825;DHT22;37879;52.986;6.282;2022-11-15T05:23:20;8.50;99.90
51825;DHT22;37879;52.986;6.282;2022-11-15T05:25:46;8.90;99.90
51825;DHT22;37879;52.986;6.282;2022-11-15T05:28:12;8.60;99.90
51825;DHT22;37879;52.986;6.282;2022-11-15T05:30:38;8.70;99.90
51825;DHT22;37879;52.986;6.282;2022-11-15T05:33:03;8.70;99.90
51825;DHT22;37879;52.986;6.282;2022-11-15T05:35:34;8.80;99.90
51825;DHT22;37879;52.986;6.282;2022-11-15T05:38:02;8.70;99.90
51825;DHT22;37879;52.986;6.282;2022-11-15T05:40:29;8.80;99.90
51825;DHT22;37879;52.986;6.282;2022-11-15T05:42:56;8.80;99.90
51825;DHT22;37879;52.986;6.282;2022-11-15T05:45:22;8.80;99.90
51825;DHT22;37879;52.986;6.282;2022-11-15T05:47:48;8.90;99.90
51825;DHT22;37879;52.986;6.282;2022-11-15T05:50:17;8.90;99.90
51825;DHT22;37879;52.986;6.282;2022-11-15T05:52:45;8.90;99.90
51825;DHT22;37879;52.986;6.282;2022-11-15T05:55:12;8.90;99.90
51825;DHT22;37879;52.986;6.282;2022-11-15T05:57:38;8.90;99.90
51825;DHT22;37879;52.986;6.282;2022-11-15T06:00:04;8.90;99.90
51825;DHT22;37879;52.986;6.282;2022-11-15T06:02:30;9.00;99.90
51825;DHT22;37879;52.986;6.282;2022-11-15T06:04:56;9.00;99.90
51825;DHT22;37879;52.986;6.282;2022-11-15T06:07:22;9.00;99.90
51825;DHT22;37879;52.986;6.282;2022-11-15T06:09:47;9.10;99.90
51825;DHT22;37879;52.986;6.282;2022-11-15T06:12:13;9.10;99.90
51825;DHT22;37879;52.986;6.282;2022-11-15T06:14:39;9.10;99.90
51825;DHT22;37879;52.986;6.282;2022-11-15T06:17:04;9.10;99.90
51825;DHT22;37879;52.986;6.282;2022-11-15T06:19:30;9.20;99.90
51825;DHT22;37879;52.986;6.282;2022-11-15T06:22:01;9.20;99.90
51825;DHT22;37879;52.986;6.282;2022-11-15T06:24:27;9.30;99.90
51825;DHT22;37879;52.986;6.282;2022-11-15T06:26:53;9.40;99.90
51825;DHT22;37879;52.986;6.282;2022-11-15T06:29:18;9.40;99.90
51825;DHT22;37879;52.986;6.282;2022-11-15T06:31:44;9.40;99.90
51825;DHT22;37879;52.986;6.282;2022-11-15T06:34:10;9.40;99.90
51825;DHT22;37879;52.986;6.282;2022-11-15T06:36:36;9.40;99.90
51825;DHT22;37879;52.986;6.282;2022-11-15T06:39:05;9.40;99.90
51825;DHT22;37879;52.986;6.282;2022-11-15T06:41:33;9.40;99.90
51825;DHT22;37879;52.986;6.282;2022-11-15T06:43:59;9.40;99.90
51825;DHT22;37879;52.986;6.282;2022-11-15T06:46:25;9.40;99.90
51825;DHT22;37879;52.986;6.282;2022-11-15T06:48:52;9.40;99.90
51825;DHT22;37879;52.986;6.282;2022-11-15T06:51:18;9.40;99.90
51825;DHT22;37879;52.986;6.282;2022-11-15T06:53:43;9.40;99.90
51825;DHT22;37879;52.986;6.282;2022-11-15T06:56:09;9.50;99.90
51825;DHT22;37879;52.986;6.282;2022-11-15T06:58:35;9.40;99.90
51825;DHT22;37879;52.986;6.282;2022-11-15T07:01:09;9.50;99.90
51825;DHT22;37879;52.986;6.282;2022-11-15T07:03:37;9.50;99.90
51825;DHT22;37879;52.986;6.282;2022-11-15T07:06:03;9.50;99.90
51825;DHT22;37879;52.986;6.282;2022-11-15T07:08:29;9.60;99.90
51825;DHT22;37879;52.986;6.282;2022-11-15T07:10:59;9.60;99.90
51825;DHT22;37879;52.986;6.282;2022-11-15T07:13:26;9.60;99.90
51825;DHT22;37879;52.986;6.282;2022-11-15T07:15:52;9.50;99.90
51825;DHT22;37879;52.986;6.282;2022-11-15T07:18:18;9.60;99.90
51825;DHT22;37879;52.986;6.282;2022-11-15T07:20:44;9.60;99.90
51825;DHT22;37879;52.986;6.282;2022-11-15T07:23:09;9.80;99.90
51825;DHT22;37879;52.986;6.282;2022-11-15T07:25:35;9.60;99.90
51825;DHT22;37879;52.986;6.282;2022-11-15T07:28:02;9.60;99.90
51825;DHT22;37879;52.986;6.282;2022-11-15T07:30:28;9.60;99.90
51825;DHT22;37879;52.986;6.282;2022-11-15T07:32:58;9.70;99.90
51825;DHT22;37879;52.986;6.282;2022-11-15T07:35:25;9.80;99.90
51825;DHT22;37879;52.986;6.282;2022-11-15T07:40:20;9.80;99.90
51825;DHT22;37879;52.986;6.282;2022-11-15T07:42:46;9.80;99.90
51825;DHT22;37879;52.986;6.282;2022-11-15T07:45:22;9.80;99.90
51825;DHT22;37879;52.986;6.282;2022-11-15T07:47:49;9.90;99.90
51825;DHT22;37879;52.986;6.282;2022-11-15T07:50:16;9.90;99.90
51825;DHT22;37879;52.986;6.282;2022-11-15T07:52:42;10.00;99.90
51825;DHT22;37879;52.986;6.282;2022-11-15T07:55:08;10.00;99.90
51825;DHT22;37879;52.986;6.282;2022-11-15T07:57:34;10.00;99.90
51825;DHT22;37879;52.986;6.282;2022-11-15T07:59:59;10.00;99.90
51825;DHT22;37879;52.986;6.282;2022-11-15T08:02:25;10.10;99.90
51825;DHT22;37879;52.986;6.282;2022-11-15T08:04:50;10.10;99.90
51825;DHT22;37879;52.986;6.282;2022-11-15T08:07:16;10.10;99.90
51825;DHT22;37879;52.986;6.282;2022-11-15T08:09:42;10.10;99.90
51825;DHT22;37879;52.986;6.282;2022-11-15T08:12:08;10.20;99.90
51825;DHT22;37879;52.986;6.282;2022-11-15T08:14:35;10.20;99.90
51825;DHT22;37879;52.986;6.282;2022-11-15T08:17:01;10.30;99.90
51825;DHT22;37879;52.986;6.282;2022-11-15T08:19:26;10.30;99.90
51825;DHT22;37879;52.986;6.282;2022-11-15T08:21:52;10.30;99.90
51825;DHT22;37879;52.986;6.282;2022-11-15T08:24:18;10.40;99.90
51825;DHT22;37879;52.986;6.282;2022-11-15T08:26:43;10.50;99.90
51825;DHT22;37879;52.986;6.282;2022-11-15T08:29:09;10.50;99.90
51825;DHT22;37879;52.986;6.282;2022-11-15T08:31:36;10.50;99.90
51825;DHT22;37879;52.986;6.282;2022-11-15T08:34:03;10.50;99.90
51825;DHT22;37879;52.986;6.282;2022-11-15T08:36:28;10.50;99.90
51825;DHT22;37879;52.986;6.282;2022-11-15T08:38:54;10.40;99.90
51825;DHT22;37879;52.986;6.282;2022-11-15T08:41:40;10.50;99.90
51825;DHT22;37879;52.986;6.282;2022-11-15T08:44:06;10.50;99.90
51825;DHT22;37879;52.986;6.282;2022-11-15T08:46:32;10.50;99.90
51825;DHT22;37879;52.986;6.282;2022-11-15T08:48:57;10.50;99.90
51825;DHT22;37879;52.986;6.282;2022-11-15T08:51:23;10.60;99.90
51825;DHT22;37879;52.986;6.282;2022-11-15T08:53:49;10.60;99.90
51825;DHT22;37879;52.986;6.282;2022-11-15T08:56:15;10.60;99.90
51825;DHT22;37879;52.986;6.282;2022-11-15T08:58:41;10.60;99.90
51825;DHT22;37879;52.986;6.282;2022-11-15T09:01:15;10.60;99.90
51825;DHT22;37879;52.986;6.282;2022-11-15T09:03:41;10.60;99.90
51825;DHT22;37879;52.986;6.282;2022-11-15T09:06:07;10.60;99.90
51825;DHT22;37879;52.986;6.282;2022-11-15T09:08:34;10.70;99.90
51825;DHT22;37879;52.986;6.282;2022-11-15T09:11:03;10.70;99.90
51825;DHT22;37879;52.986;6.282;2022-11-15T09:13:29;10.80;99.90
51825;DHT22;37879;52.986;6.282;2022-11-15T09:15:58;10.90;99.90
51825;DHT22;37879;52.986;6.282;2022-11-15T09:18:24;10.90;99.90
51825;DHT22;37879;52.986;6.282;2022-11-15T09:20:50;11.00;99.90
51825;DHT22;37879;52.986;6.282;2022-11-15T09:23:16;11.00;99.90
51825;DHT22;37879;52.986;6.282;2022-11-15T09:25:42;11.00;99.90
51825;DHT22;37879;52.986;6.282;2022-11-15T09:28:07;11.10;99.90
51825;DHT22;37879;52.986;6.282;2022-11-15T09:30:33;11.10;99.90
51825;DHT22;37879;52.986;6.282;2022-11-15T09:33:05;11.20;99.90
51825;DHT22;37879;52.986;6.282;2022-11-15T09:35:31;11.30;99.90
51825;DHT22;37879;52.986;6.282;2022-11-15T09:37:57;11.30;99.90
51825;DHT22;37879;52.986;6.282;2022-11-15T09:40:23;11.30;99.90
51825;DHT22;37879;52.986;6.282;2022-11-15T09:46:12;11.40;99.90
51825;DHT22;37879;52.986;6.282;2022-11-15T09:51:26;11.40;99.90
51825;DHT22;37879;52.986;6.282;2022-11-15T09:54:04;11.40;99.90
51825;DHT22;37879;52.986;6.282;2022-11-15T09:56:34;11.40;99.90
51825;DHT22;37879;52.986;6.282;2022-11-15T10:04:41;11.40;99.90
51825;DHT22;37879;52.986;6.282;2022-11-15T10:09:50;11.40;99.90
51825;DHT22;37879;52.986;6.282;2022-11-15T10:12:18;11.50;99.90
51825;DHT22;37879;52.986;6.282;2022-11-15T10:14:45;11.50;99.90
51825;DHT22;37879;52.986;6.282;2022-11-15T10:22:45;11.60;99.90
51825;DHT22;37879;52.986;6.282;2022-11-15T10:25:22;11.60;99.90
51825;DHT22;37879;52.986;6.282;2022-11-15T10:28:21;11.60;99.90
51825;DHT22;37879;52.986;6.282;2022-11-15T10:30:52;11.70;99.90
51825;DHT22;37879;52.986;6.282;2022-11-15T10:33:36;11.70;99.90
51825;DHT22;37879;52.986;6.282;2022-11-15T10:36:16;11.80;99.90
51825;DHT22;37879;52.986;6.282;2022-11-15T10:41:17;11.90;99.90
51825;DHT22;37879;52.986;6.282;2022-11-15T10:43:43;11.90;99.90
51825;DHT22;37879;52.986;6.282;2022-11-15T10:46:23;11.90;99.90
51825;DHT22;37879;52.986;6.282;2022-11-15T10:48:49;12.00;99.90
51825;DHT22;37879;52.986;6.282;2022-11-15T10:51:43;12.00;99.90
51825;DHT22;37879;52.986;6.282;2022-11-15T10:54:10;12.00;99.90
51825;DHT22;37879;52.986;6.282;2022-11-15T10:56:37;12.00;99.90
51825;DHT22;37879;52.986;6.282;2022-11-15T10:59:03;12.00;99.90
51825;DHT22;37879;52.986;6.282;2022-11-15T11:01:29;12.00;99.90
51825;DHT22;37879;52.986;6.282;2022-11-15T11:06:24;12.00;99.90
51825;DHT22;37879;52.986;6.282;2022-11-15T11:08:59;12.00;99.90
51825;DHT22;37879;52.986;6.282;2022-11-15T11:11:46;12.10;99.90
51825;DHT22;37879;52.986;6.282;2022-11-15T11:14:21;12.10;99.90
51825;DHT22;37879;52.986;6.282;2022-11-15T11:16:52;12.10;99.90
51825;DHT22;37879;52.986;6.282;2022-11-15T11:22:22;12.20;99.90
51825;DHT22;37879;52.986;6.282;2022-11-15T11:25:33;12.20;99.90
51825;DHT22;37879;52.986;6.282;2022-11-15T11:33:22;12.30;99.90
51825;DHT22;37879;52.986;6.282;2022-11-15T11:36:11;12.30;99.90
51825;DHT22;37879;52.986;6.282;2022-11-15T11:38:50;12.30;99.90
51825;DHT22;37879;52.986;6.282;2022-11-15T11:47:10;12.30;99.90
51825;DHT22;37879;52.986;6.282;2022-11-15T11:50:00;12.20;99.90
51825;DHT22;37879;52.986;6.282;2022-11-15T11:55:24;12.10;99.90
51825;DHT22;37879;52.986;6.282;2022-11-15T12:00:47;12.00;99.90
51825;DHT22;37879;52.986;6.282;2022-11-15T12:06:08;11.90;99.90
51825;DHT22;37879;52.986;6.282;2022-11-15T12:08:47;11.80;99.90
51825;DHT22;37879;52.986;6.282;2022-11-15T12:11:30;11.80;99.90
51825;DHT22;37879;52.986;6.282;2022-11-15T12:14:03;11.80;99.90
51825;DHT22;37879;52.986;6.282;2022-11-15T12:16:32;11.90;99.90
51825;DHT22;37879;52.986;6.282;2022-11-15T12:19:03;12.00;99.90
51825;DHT22;37879;52.986;6.282;2022-11-15T12:21:41;12.00;99.90
51825;DHT22;37879;52.986;6.282;2022-11-15T12:24:19;12.10;99.90
51825;DHT22;37879;52.986;6.282;2022-11-15T12:29:48;12.20;99.90
51825;DHT22;37879;52.986;6.282;2022-11-15T12:32:31;12.30;99.90
51825;DHT22;37879;52.986;6.282;2022-11-15T12:34:59;12.30;99.90
51825;DHT22;37879;52.986;6.282;2022-11-15T12:37:50;12.40;99.90
51825;DHT22;37879;52.986;6.282;2022-11-15T12:40:28;12.50;99.90
51825;DHT22;37879;52.986;6.282;2022-11-15T12:43:34;12.60;99.90
51825;DHT22;37879;52.986;6.282;2022-11-15T12:46:03;12.70;99.90
51825;DHT22;37879;52.986;6.282;2022-11-15T12:51:02;12.70;99.90
51825;DHT22;37879;52.986;6.282;2022-11-15T12:53:32;12.70;99.90
51825;DHT22;37879;52.986;6.282;2022-11-15T12:58:58;12.70;99.90
51825;DHT22;37879;52.986;6.282;2022-11-15T13:06:50;12.90;99.90
51825;DHT22;37879;52.986;6.282;2022-11-15T13:10:28;12.90;99.90
51825;DHT22;37879;52.986;6.282;2022-11-15T13:14:54;12.80;99.90
51825;DHT22;37879;52.986;6.282;2022-11-15T13:17:36;12.70;99.90
51825;DHT22;37879;52.986;6.282;2022-11-15T13:26:06;12.60;99.90
51825;DHT22;37879;52.986;6.282;2022-11-15T13:28:47;12.50;99.90
51825;DHT22;37879;52.986;6.282;2022-11-15T13:33:49;12.40;99.90
51825;DHT22;37879;52.986;6.282;2022-11-15T13:36:24;12.40;99.90
51825;DHT22;37879;52.986;6.282;2022-11-15T13:39:29;12.30;99.90
51825;DHT22;37879;52.986;6.282;2022-11-15T13:41:55;12.30;99.90
51825;DHT22;37879;52.986;6.282;2022-11-15T13:44:27;12.30;99.90
51825;DHT22;37879;52.986;6.282;2022-11-15T13:47:13;12.30;99.90
51825;DHT22;37879;52.986;6.282;2022-11-15T13:49:40;12.30;99.90
51825;DHT22;37879;52.986;6.282;2022-11-15T13:52:09;12.40;99.90
51825;DHT22;37879;52.986;6.282;2022-11-15T13:54:47;12.30;99.90
51825;DHT22;37879;52.986;6.282;2022-11-15T13:57:30;12.40;99.90
51825;DHT22;37879;52.986;6.282;2022-11-15T14:02:52;12.30;99.90
51825;DHT22;37879;52.986;6.282;2022-11-15T14:05:21;12.20;99.90
51825;DHT22;37879;52.986;6.282;2022-11-15T14:07:54;12.20;99.90
51825;DHT22;37879;52.986;6.282;2022-11-15T14:10:32;12.10;99.90
51825;DHT22;37879;52.986;6.282;2022-11-15T14:12:58;12.10;99.90
51825;DHT22;37879;52.986;6.282;2022-11-15T14:15:35;12.00;99.90
51825;DHT22;37879;52.986;6.282;2022-11-15T14:18:02;11.90;99.90
51825;DHT22;37879;52.986;6.282;2022-11-15T14:20:38;11.90;99.90
51825;DHT22;37879;52.986;6.282;2022-11-15T14:23:26;11.80;99.90
51825;DHT22;37879;52.986;6.282;2022-11-15T14:25:57;11.70;99.90
51825;DHT22;37879;52.986;6.282;2022-11-15T14:30:50;11.60;99.90
51825;DHT22;37879;52.986;6.282;2022-11-15T14:33:36;11.50;99.90
51825;DHT22;37879;52.986;6.282;2022-11-15T14:36:17;11.50;99.90
51825;DHT22;37879;52.986;6.282;2022-11-15T14:38:43;11.50;99.90
51825;DHT22;37879;52.986;6.282;2022-11-15T14:41:24;11.40;99.90
51825;DHT22;37879;52.986;6.282;2022-11-15T14:43:50;11.40;99.90
51825;DHT22;37879;52.986;6.282;2022-11-15T14:46:17;11.40;99.90
51825;DHT22;37879;52.986;6.282;2022-11-15T14:48:43;11.30;99.90
51825;DHT22;37879;52.986;6.282;2022-11-15T14:51:12;11.30;99.90
51825;DHT22;37879;52.986;6.282;2022-11-15T14:53:38;11.30;99.90
51825;DHT22;37879;52.986;6.282;2022-11-15T14:56:04;11.20;99.90
51825;DHT22;37879;52.986;6.282;2022-11-15T14:58:30;11.10;99.90
51825;DHT22;37879;52.986;6.282;2022-11-15T15:00:56;11.10;99.90
51825;DHT22;37879;52.986;6.282;2022-11-15T15:03:21;11.00;99.90
51825;DHT22;37879;52.986;6.282;2022-11-15T15:05:47;11.00;99.90
51825;DHT22;37879;52.986;6.282;2022-11-15T15:08:16;10.90;99.90
51825;DHT22;37879;52.986;6.282;2022-11-15T15:10:44;10.80;99.90
51825;DHT22;37879;52.986;6.282;2022-11-15T15:13:21;10.80;99.90
51825;DHT22;37879;52.986;6.282;2022-11-15T15:15:48;10.80;99.90
51825;DHT22;37879;52.986;6.282;2022-11-15T15:18:14;10.80;99.90
51825;DHT22;37879;52.986;6.282;2022-11-15T15:20:41;10.80;99.90
51825;DHT22;37879;52.986;6.282;2022-11-15T15:23:18;10.80;99.90
51825;DHT22;37879;52.986;6.282;2022-11-15T15:25:45;10.80;99.90
51825;DHT22;37879;52.986;6.282;2022-11-15T15:28:12;10.80;99.90
51825;DHT22;37879;52.986;6.282;2022-11-15T15:30:38;10.80;99.90
51825;DHT22;37879;52.986;6.282;2022-11-15T15:33:03;10.80;99.90
51825;DHT22;37879;52.986;6.282;2022-11-15T15:35:31;10.80;99.90
51825;DHT22;37879;52.986;6.282;2022-11-15T15:37:57;10.70;99.90
51825;DHT22;37879;52.986;6.282;2022-11-15T15:40:25;10.70;99.90
51825;DHT22;37879;52.986;6.282;2022-11-15T15:42:51;10.60;99.90
51825;DHT22;37879;52.986;6.282;2022-11-15T15:45:17;10.60;99.90
51825;DHT22;37879;52.986;6.282;2022-11-15T15:47:44;10.50;99.90
51825;DHT22;37879;52.986;6.282;2022-11-15T15:52:49;10.40;99.90
51825;DHT22;37879;52.986;6.282;2022-11-15T15:55:15;10.40;99.90
51825;DHT22;37879;52.986;6.282;2022-11-15T15:57:41;10.30;99.90
51825;DHT22;37879;52.986;6.282;2022-11-15T16:00:08;10.30;99.90
51825;DHT22;37879;52.986;6.282;2022-11-15T16:02:34;10.30;99.90
51825;DHT22;37879;52.986;6.282;2022-11-15T16:05:00;10.30;99.90
51825;DHT22;37879;52.986;6.282;2022-11-15T16:07:25;10.30;99.90
51825;DHT22;37879;52.986;6.282;2022-11-15T16:09:54;10.60;99.90
51825;DHT22;37879;52.986;6.282;2022-11-15T16:12:29;10.20;99.90
51825;DHT22;37879;52.986;6.282;2022-11-15T16:14:55;10.20;99.90
51825;DHT22;37879;52.986;6.282;2022-11-15T16:17:32;10.20;99.90
51825;DHT22;37879;52.986;6.282;2022-11-15T16:19:59;10.10;99.90
51825;DHT22;37879;52.986;6.282;2022-11-15T16:22:25;10.20;99.90
51825;DHT22;37879;52.986;6.282;2022-11-15T16:24:50;10.20;99.90
51825;DHT22;37879;52.986;6.282;2022-11-15T16:27:18;10.20;99.90
51825;DHT22;37879;52.986;6.282;2022-11-15T16:29:45;10.30;99.90
51825;DHT22;37879;52.986;6.282;2022-11-15T16:32:11;10.30;99.90
51825;DHT22;37879;52.986;6.282;2022-11-15T16:34:37;10.40;99.90
51825;DHT22;37879;52.986;6.282;2022-11-15T16:37:03;10.50;99.90
51825;DHT22;37879;52.986;6.282;2022-11-15T16:39:29;10.50;99.90
51825;DHT22;37879;52.986;6.282;2022-11-15T16:41:57;10.50;99.90
51825;DHT22;37879;52.986;6.282;2022-11-15T16:44:22;10.50;99.90
51825;DHT22;37879;52.986;6.282;2022-11-15T16:46:49;10.50;99.90
51825;DHT22;37879;52.986;6.282;2022-11-15T16:49:17;10.50;99.90
51825;DHT22;37879;52.986;6.282;2022-11-15T16:51:47;10.60;99.90
51825;DHT22;37879;52.986;6.282;2022-11-15T16:54:14;10.60;99.90
51825;DHT22;37879;52.986;6.282;2022-11-15T16:56:40;10.60;99.90
51825;DHT22;37879;52.986;6.282;2022-11-15T16:59:06;10.60;99.90
51825;DHT22;37879;52.986;6.282;2022-11-15T17:01:36;10.60;99.90
51825;DHT22;37879;52.986;6.282;2022-11-15T17:04:13;10.70;99.90
51825;DHT22;37879;52.986;6.282;2022-11-15T17:06:42;10.70;99.90
51825;DHT22;37879;52.986;6.282;2022-11-15T17:09:16;10.80;99.90
51825;DHT22;37879;52.986;6.282;2022-11-15T17:11:43;10.80;99.90
51825;DHT22;37879;52.986;6.282;2022-11-15T17:14:09;10.80;99.90
51825;DHT22;37879;52.986;6.282;2022-11-15T17:16:35;10.80;99.90
51825;DHT22;37879;52.986;6.282;2022-11-15T17:19:03;10.80;99.90
51825;DHT22;37879;52.986;6.282;2022-11-15T17:21:30;10.90;99.90
51825;DHT22;37879;52.986;6.282;2022-11-15T17:23:58;10.90;99.90
51825;DHT22;37879;52.986;6.282;2022-11-15T17:26:24;10.90;99.90
51825;DHT22;37879;52.986;6.282;2022-11-15T17:28:54;10.90;99.90
51825;DHT22;37879;52.986;6.282;2022-11-15T17:31:20;11.00;99.90
51825;DHT22;37879;52.986;6.282;2022-11-15T17:33:46;10.90;99.90
51825;DHT22;37879;52.986;6.282;2022-11-15T17:36:11;11.00;99.90
51825;DHT22;37879;52.986;6.282;2022-11-15T17:38:40;11.00;99.90
51825;DHT22;37879;52.986;6.282;2022-11-15T17:41:10;11.00;99.90